Quetzalcoatl International Airport
MMNL : now visible

Airfield :











YOU CAN JOIN US ON...

 
LOGIN :

Register | Disclaimer

   EN    FR    IT 

 









Legend :    VFR   Marginal VFR   IFR   Intensive IFR   Very Intensive IFR
Visi :
Ceiling :
>= 8 km
>= 3000ft
5 to 8 km
1000 to 3000 ft
1500m to 5 km
500 to 1000 ft
800 to 1500m
200 to 500 ft
< 800m
< 200 ft
Symbols :   Thunderstorms  Fog  Heavy snow  Heavy precipitations  Wind > 20 kt






- Airport Elevation : 484 ft
- IATA code : NLD


MMNL - Quetzalcoatl International

CURRENT METAR :
  • 211440Z 03011KT 6SM SCT007 OVC015 15/15 A3022 RMK SLP220 52011 944 8/5//

EXPIRED METARs :
  • 211340Z 03011KT 5SM SCT006 OVC015 15/15 A3019 RMK 8/5// HZY
  • 211300Z RTD 01012KT 2SM -DZ BR OVC008 15/15 A3017 RMK 60082 8/5// RTS

TAF TAF MMNL
Valid from the 21 at 06:00 until the 22 at 06:00 UTC


210549Z 2106/2206 34015KT P6SM BKN010 OVC015
FM211000 36018KT 4SM -RA OVC010
TEMPO 2112/2116 2SM -RA BR OVC006
FM211600 36012G22KT 5SM HZ BKN012 OVC030
PROB40 2116/2120 4SM -RA BKN010 OVC020
FM212100 36014KT 6SM HZ BKN015 OVC050
FM220500 36012KT 5SM HZ BKN020
MMFR FIR / North America



MET'MAP, your aeronautical weather chart ! - Copyright ORBIFLY December 2007 - Disclaimer

ORBIFLY MET'MAP TEAM :

Programming & Development : Alexandra Zaïnal
Original concept : Baudouin d'Aumeries
Technical & hardware support : Manuel Goepfert
Assistance : Marc-Olivier Méhu




SOURCES & CREDITS :

   NOAA       Earth
Advisory